Time;durP1;ratioP1;P1;durP2;ratioP2;P2;SDS_P1;SDS_P2;PMS_P1;PMS_P2;Temp;Humidity;BMP_temperature;BMP_pressure;BME280_temperature;BME280_humidity;BME280_pressure;Samples;Min_cycle;Max_cycle;Signal;HPM_P1;HPM_P2
2021/06/03 00:02:24;;;;;;;8.63;4.78;;;;;;;16.42;64.33;100183.91;5021463;28;20037;-64
2021/06/03 00:04:50;;;;;;;6.20;4.57;;;;;;;16.37;64.46;100177.47;5028726;28;20370;-64
2021/06/03 00:07:15;;;;;;;10.80;4.93;;;;;;;16.12;65.49;100188.50;5028392;28;20330;-64
2021/06/03 00:09:42;;;;;;;6.28;4.68;;;;;;;16.24;65.24;100192.34;5030477;28;20256;-64
2021/06/03 00:12:09;;;;;;;7.15;4.32;;;;;;;16.31;64.97;100189.75;5035298;28;20612;-64
2021/06/03 00:14:35;;;;;;;9.13;4.63;;;;;;;16.37;64.70;100190.84;5032985;28;20025;-64
2021/06/03 00:17:01;;;;;;;9.30;4.85;;;;;;;16.46;64.38;100182.50;5026696;28;20055;-64
2021/06/03 00:19:26;;;;;;;19.88;4.80;;;;;;;16.44;64.44;100184.53;5034859;28;20330;-64
2021/06/03 00:21:54;;;;;;;7.43;4.72;;;;;;;16.13;64.75;100163.44;5036876;28;20220;-64
2021/06/03 00:24:19;;;;;;;15.73;5.32;;;;;;;16.30;65.37;100185.41;5028952;28;20030;-64
2021/06/03 00:26:45;;;;;;;6.78;4.80;;;;;;;16.22;65.15;100182.84;5031417;28;20075;-64
2021/06/03 00:29:12;;;;;;;8.73;5.25;;;;;;;16.20;65.44;100177.69;5029433;28;20025;-64
2021/06/03 00:31:38;;;;;;;10.45;5.07;;;;;;;16.11;65.47;100181.50;5028206;28;20057;-64
2021/06/03 00:34:03;;;;;;;8.88;5.07;;;;;;;16.05;65.71;100176.91;5026736;28;20068;-64
2021/06/03 00:36:29;;;;;;;11.73;5.35;;;;;;;16.10;65.78;100176.34;5036378;28;20037;-64
2021/06/03 00:38:54;;;;;;;8.25;5.03;;;;;;;16.24;65.39;100170.13;5040562;28;20026;-65
2021/06/03 00:41:20;;;;;;;6.38;4.28;;;;;;;16.34;64.95;100169.84;5029482;28;20074;-64
2021/06/03 00:43:46;;;;;;;12.70;5.00;;;;;;;16.44;64.37;100173.03;5032501;28;20227;-65
2021/06/03 00:46:12;;;;;;;9.45;4.57;;;;;;;16.32;64.38;100172.69;5034149;28;20238;-64
2021/06/03 00:48:38;;;;;;;6.40;4.63;;;;;;;16.40;64.41;100174.44;5034822;28;20037;-64
2021/06/03 00:51:06;;;;;;;10.88;4.60;;;;;;;16.36;64.57;100167.81;5033251;28;20040;-64
2021/06/03 00:53:34;;;;;;;12.27;5.40;;;;;;;16.30;64.61;100172.06;5033890;28;20323;-64
2021/06/03 00:56:01;;;;;;;9.65;5.15;;;;;;;16.40;64.18;100171.75;5033795;28;20295;-64
2021/06/03 00:58:27;;;;;;;12.48;5.38;;;;;;;16.37;64.02;100175.63;5027233;28;20097;-64
2021/06/03 01:00:54;;;;;;;8.82;5.32;;;;;;;16.35;64.00;100174.16;5030157;28;20123;-64
2021/06/03 01:03:21;;;;;;;10.57;4.78;;;;;;;16.42;63.11;100170.53;5029541;28;20071;-64
2021/06/03 01:05:53;;;;;;;10.90;6.03;;;;;;;16.38;63.29;100163.91;5033065;28;20214;-64
2021/06/03 01:08:23;;;;;;;10.32;4.90;;;;;;;16.40;63.06;100166.41;5031591;28;20045;-64
2021/06/03 01:11:18;;;;;;;12.65;5.53;;;;;;;16.45;62.89;100172.00;5031205;28;20025;-64
2021/06/03 01:13:49;;;;;;;8.98;4.80;;;;;;;16.44;62.54;100165.84;5024899;28;20025;-64
2021/06/03 01:16:15;;;;;;;9.00;4.35;;;;;;;16.32;62.77;100163.84;5023148;28;20181;-64
2021/06/03 01:18:43;;;;;;;9.98;4.78;;;;;;;16.17;62.64;100162.03;5027873;28;20018;-64
2021/06/03 01:21:16;;;;;;;10.10;4.45;;;;;;;16.04;62.92;100163.75;5037691;28;20045;-64
2021/06/03 01:23:52;;;;;;;7.57;5.00;;;;;;;16.16;62.46;100167.56;5040387;28;20030;-64
2021/06/03 01:26:18;;;;;;;7.30;4.25;;;;;;;16.13;62.37;100162.63;5030973;28;20040;-64
2021/06/03 01:28:46;;;;;;;7.72;4.03;;;;;;;16.13;62.46;100166.13;5030194;28;20286;-64
2021/06/03 01:31:11;;;;;;;9.23;4.57;;;;;;;16.30;61.83;100166.72;5031485;28;20061;-64
2021/06/03 01:33:41;;;;;;;7.78;4.28;;;;;;;16.10;62.31;100171.81;5033853;28;20315;-64
2021/06/03 01:36:13;;;;;;;9.50;4.47;;;;;;;15.89;62.44;100159.25;5027270;28;20041;-64
2021/06/03 01:38:41;;;;;;;9.45;4.20;;;;;;;15.93;62.85;100170.38;5030824;28;20029;-64
2021/06/03 01:41:09;;;;;;;9.40;4.35;;;;;;;16.01;62.30;100180.13;5036458;28;20280;-64
2021/06/03 01:43:38;;;;;;;4.82;4.18;;;;;;;15.93;62.12;100184.56;5023570;28;20350;-64
2021/06/03 01:46:04;;;;;;;7.30;4.30;;;;;;;15.80;62.89;100184.41;5043080;28;20227;-64
2021/06/03 01:48:31;;;;;;;7.88;4.80;;;;;;;15.62;63.10;100183.94;5041970;28;20017;-63
2021/06/03 01:50:58;;;;;;;11.07;5.40;;;;;;;15.78;62.60;100189.09;5036551;28;20053;-64
2021/06/03 01:53:26;;;;;;;10.82;5.25;;;;;;;15.89;62.59;100193.97;5043868;28;20025;-64
2021/06/03 01:55:59;;;;;;;6.05;4.60;;;;;;;15.76;62.57;100198.31;5041993;28;20231;-64
2021/06/03 01:58:25;;;;;;;10.15;4.57;;;;;;;15.41;63.62;100187.28;5038503;28;20030;-64
2021/06/03 02:00:52;;;;;;;7.50;4.28;;;;;;;15.57;63.35;100195.13;5032460;28;20050;-64
2021/06/03 02:03:21;;;;;;;13.93;4.80;;;;;;;15.51;63.94;100197.69;5029158;28;20044;-64
2021/06/03 02:05:47;;;;;;;11.13;4.60;;;;;;;15.61;63.23;100196.47;5028613;28;20030;-64
2021/06/03 02:08:12;;;;;;;7.75;4.78;;;;;;;15.59;63.14;100186.94;5029031;28;20322;-64
2021/06/03 02:10:38;;;;;;;7.90;4.97;;;;;;;15.67;63.14;100194.06;5025637;28;20030;-64
2021/06/03 02:13:24;;;;;;;13.05;5.22;;;;;;;15.62;63.00;100175.94;5038761;28;20337;-64
2021/06/03 02:16:02;;;;;;;12.23;4.65;;;;;;;15.63;62.79;100182.94;5032086;28;20250;-64
2021/06/03 02:18:48;;;;;;;9.43;4.38;;;;;;;15.60;62.21;100185.94;5031610;28;20042;-64
2021/06/03 02:21:14;;;;;;;12.65;4.43;;;;;;;15.63;62.18;100186.41;5032047;28;20376;-64
2021/06/03 02:23:41;;;;;;;10.90;5.00;;;;;;;15.73;61.86;100188.00;5035254;28;20451;-64
2021/06/03 02:26:06;;;;;;;9.13;4.95;;;;;;;15.71;61.33;100190.84;5029870;28;20049;-64
2021/06/03 02:28:33;;;;;;;9.55;4.43;;;;;;;15.64;61.51;100190.75;5030609;28;20017;-64
2021/06/03 02:30:59;;;;;;;9.98;4.53;;;;;;;15.61;61.25;100193.78;5030944;28;20067;-64
2021/06/03 02:33:28;;;;;;;11.70;4.22;;;;;;;15.58;61.09;100194.13;5034247;28;20208;-64
2021/06/03 02:35:53;;;;;;;8.85;4.25;;;;;;;15.63;60.72;100201.63;5038070;28;20041;-64
2021/06/03 02:38:25;;;;;;;8.60;4.28;;;;;;;15.64;60.54;100188.06;5038631;28;20046;-64
2021/06/03 02:40:52;;;;;;;8.70;4.70;;;;;;;15.41;61.00;100195.28;5025797;28;20251;-64
2021/06/03 02:43:19;;;;;;;9.25;4.30;;;;;;;15.28;61.30;100198.56;5041932;28;20172;-64
2021/06/03 02:45:44;;;;;;;8.48;4.57;;;;;;;15.10;61.99;100202.56;5042630;28;20041;-64
2021/06/03 02:48:10;;;;;;;11.88;4.18;;;;;;;15.14;62.13;100199.38;5032534;28;20078;-64
2021/06/03 02:50:35;;;;;;;5.45;4.15;;;;;;;15.41;60.97;100189.94;5035693;28;20060;-64
2021/06/03 02:53:01;;;;;;;11.05;4.90;;;;;;;15.37;61.06;100193.16;5034356;28;20025;-64
2021/06/03 02:55:26;;;;;;;6.63;4.40;;;;;;;15.39;60.77;100194.63;5032468;28;20063;-64
2021/06/03 02:57:52;;;;;;;9.35;5.13;;;;;;;15.28;60.99;100190.56;5027003;28;20029;-64
2021/06/03 03:00:22;;;;;;;10.10;4.18;;;;;;;15.37;61.20;100198.50;5035336;28;20279;-64
2021/06/03 03:02:48;;;;;;;11.15;4.93;;;;;;;15.39;61.04;100207.13;5031992;28;20041;-64
2021/06/03 03:05:14;;;;;;;9.90;4.20;;;;;;;15.47;60.40;100207.88;5031724;28;20093;-64
2021/06/03 03:07:39;;;;;;;6.57;4.15;;;;;;;15.41;61.32;100203.28;5038040;28;20017;-63
2021/06/03 03:10:10;;;;;;;11.55;4.40;;;;;;;15.43;60.93;100197.75;5032721;28;20234;-63
2021/06/03 03:12:36;;;;;;;13.43;4.32;;;;;;;15.46;60.59;100194.72;5027209;28;20268;-64
2021/06/03 03:15:04;;;;;;;12.32;4.78;;;;;;;15.43;60.75;100192.41;5030779;28;20045;-64
2021/06/03 03:17:29;;;;;;;7.28;4.28;;;;;;;15.52;60.22;100200.16;5032367;28;20661;-64
2021/06/03 03:19:54;;;;;;;7.50;3.67;;;;;;;15.47;60.61;100202.53;5029895;28;20049;-64
2021/06/03 03:22:20;;;;;;;12.20;4.57;;;;;;;15.51;60.63;100198.50;5031028;28;20041;-64
2021/06/03 03:24:45;;;;;;;9.48;4.30;;;;;;;15.46;60.37;100189.38;5027398;28;20034;-64
2021/06/03 03:27:11;;;;;;;9.15;4.57;;;;;;;15.43;60.28;100192.41;5029938;28;20343;-64
2021/06/03 03:29:36;;;;;;;7.20;4.03;;;;;;;15.41;60.62;100203.28;5023578;28;20031;-63
2021/06/03 03:32:02;;;;;;;8.25;4.57;;;;;;;15.56;60.03;100203.28;5034431;28;20075;-64
2021/06/03 03:34:28;;;;;;;9.23;4.35;;;;;;;15.50;60.24;100201.34;5027196;28;20055;-64
2021/06/03 03:36:53;;;;;;;6.45;4.82;;;;;;;15.50;60.32;100204.84;5036125;28;20025;-64
2021/06/03 03:39:19;;;;;;;8.88;4.40;;;;;;;15.50;60.51;100207.53;5042579;28;20372;-64
2021/06/03 03:41:44;;;;;;;6.57;4.70;;;;;;;15.59;59.80;100214.47;5043122;28;20087;-64
2021/06/03 03:44:10;;;;;;;9.63;4.75;;;;;;;15.66;60.07;100213.75;5042564;28;20096;-64
2021/06/03 03:46:36;;;;;;;13.35;4.60;;;;;;;15.79;59.21;100216.63;5042893;28;20033;-64
2021/06/03 03:49:02;;;;;;;9.40;4.43;;;;;;;15.87;59.04;100213.84;5032623;28;20101;-64
2021/06/03 03:51:28;;;;;;;10.55;4.68;;;;;;;15.92;58.67;100211.47;5022036;28;20058;-64
2021/06/03 03:53:54;;;;;;;9.70;4.82;;;;;;;16.09;57.97;100214.75;5021780;28;20029;-64
2021/06/03 03:56:20;;;;;;;7.57;4.35;;;;;;;16.13;57.55;100224.88;5036396;28;20090;-64
2021/06/03 03:58:48;;;;;;;7.28;4.47;;;;;;;16.04;57.36;100220.66;5041977;28;20022;-64
2021/06/03 04:01:14;;;;;;;12.27;4.40;;;;;;;16.14;57.18;100231.06;5029527;28;20060;-64
2021/06/03 04:03:40;;;;;;;8.52;5.13;;;;;;;16.01;57.55;100223.69;5034343;28;20064;-63
2021/06/03 04:06:06;;;;;;;10.38;4.63;;;;;;;16.14;56.73;100231.88;5029710;28;20026;-63
2021/06/03 04:08:32;;;;;;;9.23;4.78;;;;;;;16.24;56.64;100242.28;5036419;28;20025;-64
2021/06/03 04:10:58;;;;;;;11.68;3.90;;;;;;;16.18;56.84;100238.50;5027444;28;20084;-64
2021/06/03 04:13:24;;;;;;;13.50;4.13;;;;;;;16.34;56.59;100231.31;5030747;28;20332;-64
2021/06/03 04:15:49;;;;;;;9.65;3.85;;;;;;;16.37;55.69;100222.91;5022882;28;20065;-64
2021/06/03 04:18:15;;;;;;;15.00;4.03;;;;;;;16.68;54.54;100222.69;5035812;28;20065;-64
2021/06/03 04:20:40;;;;;;;9.48;4.13;;;;;;;17.02;54.11;100230.03;5026405;28;20017;-64
2021/06/03 04:23:06;;;;;;;12.90;4.25;;;;;;;17.41;53.44;100229.53;5029690;28;20041;-64
2021/06/03 04:25:32;;;;;;;16.05;3.80;;;;;;;17.54;52.64;100238.47;5026402;28;20055;-64
2021/06/03 04:27:58;;;;;;;7.65;3.80;;;;;;;17.75;52.36;100231.47;5029912;28;20345;-64
2021/06/03 04:30:25;;;;;;;14.95;3.92;;;;;;;17.91;52.32;100243.72;5026195;28;20030;-64
2021/06/03 04:32:51;;;;;;;8.27;4.13;;;;;;;18.14;51.03;100242.41;5026026;28;20042;-64
2021/06/03 04:35:18;;;;;;;10.52;3.65;;;;;;;18.17;51.02;100242.00;5021197;28;20056;-64
2021/06/03 04:37:44;;;;;;;8.45;3.75;;;;;;;18.28;49.51;100237.91;5024745;28;20041;-64
2021/06/03 04:40:12;;;;;;;8.57;3.30;;;;;;;18.36;49.66;100248.47;5029331;28;20037;-64
2021/06/03 04:42:37;;;;;;;10.43;3.85;;;;;;;18.79;49.07;100232.16;5028119;28;20021;-64
2021/06/03 04:45:06;;;;;;;8.48;3.50;;;;;;;19.11;48.28;100239.41;5029408;28;20087;-64
2021/06/03 04:47:32;;;;;;;11.45;3.60;;;;;;;19.40;46.72;100240.03;5031624;28;20033;-64
2021/06/03 04:49:57;;;;;;;13.82;3.80;;;;;;;19.63;45.17;100231.56;5028917;28;20231;-64
2021/06/03 04:52:26;;;;;;;33.72;5.35;;;;;;;19.95;43.81;100232.56;5032586;28;20038;-64
2021/06/03 04:55:00;;;;;;;7.13;3.25;;;;;;;20.03;43.83;100237.72;5025800;28;20022;-64
2021/06/03 04:57:27;;;;;;;9.65;3.30;;;;;;;20.25;43.50;100236.41;5026426;28;20026;-64
2021/06/03 04:59:52;;;;;;;39.22;4.45;;;;;;;20.34;42.59;100228.91;5029952;28;20366;-64
2021/06/03 05:02:20;;;;;;;9.43;3.47;;;;;;;20.08;42.95;100233.34;5028386;28;20041;-64
2021/06/03 05:04:46;;;;;;;6.30;3.28;;;;;;;19.98;43.63;100240.22;5023943;28;20030;-64
2021/06/03 05:07:11;;;;;;;7.75;3.30;;;;;;;19.44;44.31;100230.53;5020789;28;20037;-64
2021/06/03 05:09:38;;;;;;;11.77;3.40;;;;;;;19.34;44.82;100230.97;5029786;28;20025;-64
2021/06/03 05:12:05;;;;;;;9.63;3.63;;;;;;;19.50;45.24;100234.25;5033424;28;20105;-64
2021/06/03 05:14:30;;;;;;;9.48;3.50;;;;;;;20.08;43.92;100232.53;5029157;28;20075;-64
2021/06/03 05:16:56;;;;;;;9.90;2.92;;;;;;;20.28;42.47;100230.59;5030751;28;20038;-64
2021/06/03 05:19:21;;;;;;;13.18;3.05;;;;;;;20.71;42.47;100238.06;5033395;28;20037;-64
2021/06/03 05:21:47;;;;;;;8.70;3.65;;;;;;;20.23;43.56;100248.41;5036206;28;20294;-64
2021/06/03 05:24:12;;;;;;;6.22;3.80;;;;;;;20.51;44.07;100242.72;5033685;28;20063;-64
2021/06/03 05:26:38;;;;;;;12.68;3.10;;;;;;;20.91;43.02;100248.75;5029656;28;20037;-64
2021/06/03 05:29:03;;;;;;;13.75;3.85;;;;;;;21.00;43.37;100253.63;5037214;28;20056;-64
2021/06/03 05:31:28;;;;;;;7.72;3.40;;;;;;;21.65;42.40;100251.47;5034286;28;20013;-64
2021/06/03 05:33:54;;;;;;;7.05;3.55;;;;;;;21.86;40.76;100250.25;5036599;28;20078;-64
2021/06/03 05:36:19;;;;;;;10.60;3.50;;;;;;;22.11;40.31;100252.09;5013852;28;20032;-64
2021/06/03 05:38:45;;;;;;;12.00;3.10;;;;;;;22.69;39.10;100271.28;5030408;28;20038;-64
2021/06/03 05:41:10;;;;;;;10.15;3.35;;;;;;;23.02;37.37;100270.88;5025891;28;20036;-64
2021/06/03 05:43:36;;;;;;;22.73;3.20;;;;;;;23.13;36.95;100274.66;5033809;28;20045;-64
2021/06/03 05:46:01;;;;;;;12.70;3.05;;;;;;;23.78;36.22;100266.53;5039213;28;20036;-64
2021/06/03 05:48:27;;;;;;;7.90;3.10;;;;;;;23.74;36.07;100271.59;5025135;28;20386;-64
2021/06/03 05:50:52;;;;;;;7.90;2.97;;;;;;;24.03;35.47;100277.97;5024287;28;20106;-64
2021/06/03 05:53:17;;;;;;;4.22;2.75;;;;;;;23.90;35.25;100275.47;5037144;28;20041;-64
2021/06/03 05:55:43;;;;;;;9.32;2.88;;;;;;;24.27;35.21;100270.66;5039657;28;20092;-64
2021/06/03 05:58:10;;;;;;;6.20;3.15;;;;;;;24.72;34.96;100267.22;5042650;28;20041;-64
2021/06/03 06:00:36;;;;;;;8.25;3.15;;;;;;;24.86;33.61;100273.97;5037830;28;20250;-65
2021/06/03 06:03:09;;;;;;;9.50;3.15;;;;;;;25.14;34.05;100279.41;5039817;28;20029;-64
2021/06/03 06:08:19;;;;;;;;;;;;;;;24.09;34.48;100274.31;5035686;28;20060;-64
2021/06/03 06:10:44;;;;;;;4.43;2.53;;;;;;;24.04;35.36;100282.31;5036456;28;19980;-64
2021/06/03 06:13:11;;;;;;;10.82;3.05;;;;;;;24.60;34.61;100277.25;5037196;28;20045;-64
2021/06/03 06:15:37;;;;;;;6.85;2.38;;;;;;;24.58;34.12;100272.09;5041123;28;20239;-64
2021/06/03 06:18:03;;;;;;;8.25;3.00;;;;;;;24.83;33.97;100279.88;5042178;28;20030;-65
2021/06/03 06:20:29;;;;;;;6.82;3.13;;;;;;;24.65;33.76;100286.31;5038478;28;20120;-64
2021/06/03 06:22:56;;;;;;;8.35;3.05;;;;;;;24.36;34.44;100281.94;5037022;28;20291;-64
2021/06/03 06:25:22;;;;;;;10.65;3.05;;;;;;;24.18;34.82;100272.06;5036678;28;20033;-64
2021/06/03 06:27:47;;;;;;;18.75;2.88;;;;;;;24.05;34.34;100280.44;5037084;28;20402;-64
2021/06/03 06:30:14;;;;;;;3.63;2.80;;;;;;;24.12;35.12;100273.00;5036140;28;20021;-64
2021/06/03 06:32:40;;;;;;;3.65;2.45;;;;;;;23.75;35.50;100275.94;5036970;28;21063;-64
2021/06/03 06:35:07;;;;;;;8.57;2.90;;;;;;;23.71;36.08;100282.06;5037019;28;20021;-64
2021/06/03 06:37:32;;;;;;;6.22;3.10;;;;;;;24.44;35.31;100281.56;5036905;28;20040;-64
2021/06/03 06:39:58;;;;;;;7.65;2.63;;;;;;;24.92;34.18;100278.41;5038044;28;20041;-65
2021/06/03 06:42:25;;;;;;;11.35;3.03;;;;;;;25.08;32.98;100282.28;5036346;28;20037;-64
2021/06/03 06:44:51;;;;;;;9.02;3.00;;;;;;;25.55;32.52;100285.50;5036158;28;20028;-65
2021/06/03 06:47:16;;;;;;;7.05;2.67;;;;;;;25.63;32.61;100286.97;5037191;28;20034;-64
2021/06/03 06:49:41;;;;;;;6.53;2.65;;;;;;;26.01;31.23;100280.81;5036148;28;20075;-64
2021/06/03 06:52:07;;;;;;;7.22;3.05;;;;;;;26.27;31.20;100285.53;5034835;28;20095;-64
2021/06/03 06:54:32;;;;;;;23.77;3.70;;;;;;;26.31;31.25;100273.09;5037364;28;20029;-65
2021/06/03 06:56:58;;;;;;;5.22;3.33;;;;;;;26.77;30.75;100272.81;5035513;28;20243;-64
2021/06/03 06:59:23;;;;;;;7.38;2.78;;;;;;;26.80;30.71;100283.16;5042163;28;20099;-64
2021/06/03 07:01:49;;;;;;;9.13;3.00;;;;;;;26.78;30.82;100278.00;5045224;28;20025;-64
2021/06/03 07:04:14;;;;;;;9.18;2.70;;;;;;;26.67;31.21;100287.09;5053310;28;20033;-64
2021/06/03 07:06:40;;;;;;;6.82;2.63;;;;;;;26.79;30.15;100289.69;5051377;28;20040;-64
2021/06/03 07:09:05;;;;;;;5.03;2.38;;;;;;;26.92;30.09;100276.50;5057316;28;20075;-64
2021/06/03 07:11:31;;;;;;;13.18;2.45;;;;;;;26.57;30.18;100270.69;5061750;28;20025;-64
2021/06/03 07:13:56;;;;;;;9.15;2.83;;;;;;;26.50;29.73;100280.94;5060563;28;20049;-65
2021/06/03 07:16:22;;;;;;;4.53;2.40;;;;;;;26.88;30.00;100275.38;5048333;28;20090;-64
2021/06/03 07:18:47;;;;;;;8.32;2.85;;;;;;;26.88;29.04;100283.53;5061282;28;20036;-64
2021/06/03 07:21:13;;;;;;;14.30;2.85;;;;;;;26.45;28.99;100275.44;5060112;28;20039;-64
2021/06/03 07:23:38;;;;;;;3.83;2.33;;;;;;;27.17;28.59;100275.16;5061309;28;20029;-64
2021/06/03 07:26:04;;;;;;;5.72;2.17;;;;;;;27.65;27.66;100275.03;5059350;28;20055;-64
2021/06/03 07:28:29;;;;;;;5.97;2.10;;;;;;;27.95;27.15;100273.59;5049059;28;20029;-64
2021/06/03 07:30:55;;;;;;;4.68;2.33;;;;;;;27.30;26.64;100275.56;5061256;28;20048;-64
2021/06/03 07:33:20;;;;;;;19.02;3.15;;;;;;;26.78;25.40;100282.59;5046824;28;20044;-64
2021/06/03 07:35:46;;;;;;;10.10;2.10;;;;;;;26.83;24.18;100278.03;5061442;28;20025;-64
2021/06/03 07:38:11;;;;;;;4.50;1.70;;;;;;;27.00;25.40;100276.06;5060956;28;20323;-64
2021/06/03 07:40:38;;;;;;;19.20;2.28;;;;;;;27.46;25.24;100278.41;5061394;28;20094;-64
2021/06/03 07:43:06;;;;;;;8.32;2.10;;;;;;;27.51;24.57;100284.69;5060158;28;20032;-64
2021/06/03 07:45:32;;;;;;;7.78;2.40;;;;;;;27.27;25.54;100294.28;5054082;28;20021;-64
2021/06/03 07:47:58;;;;;;;3.25;1.77;;;;;;;27.13;25.27;100283.03;5042179;28;20037;-64
2021/06/03 07:50:26;;;;;;;6.38;2.22;;;;;;;26.97;24.33;100275.75;5041067;28;20319;-64
2021/06/03 07:52:52;;;;;;;12.00;2.17;;;;;;;27.24;24.69;100284.75;5041874;28;20096;-64
2021/06/03 07:55:18;;;;;;;15.80;3.28;;;;;;;26.67;25.17;100258.03;5041593;28;20056;-64
2021/06/03 07:57:47;;;;;;;5.30;1.80;;;;;;;27.20;24.82;100296.41;5041264;28;20048;-64
2021/06/03 08:00:15;;;;;;;7.43;2.00;;;;;;;26.86;23.74;100288.41;5041525;28;20063;-64
2021/06/03 08:02:43;;;;;;;5.53;2.13;;;;;;;26.53;25.23;100283.97;5041567;28;20060;-64
2021/06/03 08:05:09;;;;;;;10.05;2.35;;;;;;;26.67;25.43;100301.50;5041018;28;20060;-64
2021/06/03 08:07:35;;;;;;;6.03;2.15;;;;;;;27.27;24.73;100291.56;5046630;28;20036;-64
2021/06/03 08:10:02;;;;;;;9.13;1.70;;;;;;;27.47;24.52;100297.19;5059948;28;20311;-64
2021/06/03 08:12:28;;;;;;;3.42;1.75;;;;;;;28.16;23.33;100296.31;5058458;28;20036;-64
2021/06/03 08:14:53;;;;;;;7.10;1.80;;;;;;;28.10;23.55;100295.47;5059976;28;20341;-64
2021/06/03 08:17:19;;;;;;;6.15;2.00;;;;;;;27.89;23.40;100310.03;5058481;28;20029;-64
2021/06/03 08:19:44;;;;;;;6.88;1.92;;;;;;;27.24;24.33;100298.34;5059865;28;20207;-64
2021/06/03 08:22:09;;;;;;;3.45;1.90;;;;;;;27.51;24.17;100303.75;5059520;28;20082;-64
2021/06/03 08:24:35;;;;;;;4.60;2.00;;;;;;;27.96;22.74;100302.44;5059195;28;20025;-64
2021/06/03 08:27:00;;;;;;;2.22;1.88;;;;;;;28.16;22.86;100301.78;5059647;28;20036;-64
2021/06/03 08:29:26;;;;;;;6.40;1.75;;;;;;;28.34;22.96;100295.09;5058335;28;20033;-64
2021/06/03 08:31:51;;;;;;;2.95;1.63;;;;;;;28.06;23.67;100294.34;5059974;28;20095;-64
2021/06/03 08:34:18;;;;;;;4.68;2.13;;;;;;;28.10;23.14;100305.56;5058004;28;20074;-64
2021/06/03 08:36:43;;;;;;;5.38;1.80;;;;;;;28.11;23.82;100304.47;5059975;28;20025;-64
2021/06/03 08:39:09;;;;;;;8.10;2.00;;;;;;;28.07;24.35;100301.41;5059304;28;20047;-64
2021/06/03 08:41:45;;;;;;;4.95;1.70;;;;;;;28.38;23.36;100302.44;5061117;28;20056;-64
2021/06/03 08:44:12;;;;;;;5.90;2.00;;;;;;;27.94;23.50;100296.44;5043484;28;20029;-64
2021/06/03 08:46:39;;;;;;;4.45;2.05;;;;;;;27.48;24.08;100303.44;5044225;28;20179;-64
2021/06/03 08:49:07;;;;;;;5.03;1.60;;;;;;;27.24;24.50;100289.38;5040916;28;20028;-64
2021/06/03 08:51:33;;;;;;;6.18;2.35;;;;;;;27.06;25.33;100289.75;5040814;28;20036;-64
2021/06/03 08:53:59;;;;;;;5.28;2.05;;;;;;;26.86;25.84;100296.56;5041166;28;20057;-64
2021/06/03 08:56:27;;;;;;;3.67;1.60;;;;;;;27.51;24.35;100297.47;5044195;28;20071;-64
2021/06/03 08:58:55;;;;;;;2.60;1.90;;;;;;;27.30;24.86;100301.94;5051208;28;20044;-64
2021/06/03 09:01:21;;;;;;;6.22;2.17;;;;;;;27.22;24.76;100295.06;5049951;28;20030;-64
2021/06/03 09:03:47;;;;;;;4.05;2.03;;;;;;;27.71;23.81;100299.56;5064021;28;20227;-64
2021/06/03 09:06:15;;;;;;;5.00;1.90;;;;;;;27.75;24.23;100290.63;5056733;28;20033;-64
2021/06/03 09:08:46;;;;;;;7.78;1.70;;;;;;;27.02;24.28;100298.38;5043972;28;20262;-64
2021/06/03 09:11:18;;;;;;;4.97;2.25;;;;;;;27.16;24.18;100296.09;5044780;28;20036;-64
2021/06/03 09:13:51;;;;;;;5.28;1.90;;;;;;;27.47;24.88;100291.75;5055714;28;20037;-64
2021/06/03 09:16:25;;;;;;;5.88;2.78;;;;;;;28.09;23.66;100293.84;5045509;28;20037;-64
2021/06/03 09:18:55;;;;;;;4.63;2.10;;;;;;;28.35;23.84;100299.44;5043640;28;20082;-64
2021/06/03 09:21:43;;;;;;;3.90;1.88;;;;;;;27.31;23.36;100296.22;5044245;28;20041;-64
2021/06/03 09:24:13;;;;;;;7.07;2.00;;;;;;;26.82;25.09;100289.16;5044866;28;20032;-64
2021/06/03 09:26:54;;;;;;;6.65;2.00;;;;;;;27.54;24.13;100294.25;5044741;28;20045;-64
2021/06/03 09:29:28;;;;;;;5.20;1.70;;;;;;;28.03;24.37;100291.31;5044385;28;20049;-64
2021/06/03 09:32:11;;;;;;;4.75;1.83;;;;;;;27.50;24.28;100288.50;5044110;28;20184;-64
2021/06/03 09:34:39;;;;;;;7.35;1.90;;;;;;;27.55;24.77;100293.97;5043996;28;20033;-64
2021/06/03 09:37:07;;;;;;;4.97;1.90;;;;;;;27.65;24.34;100288.63;5044419;28;20044;-64
2021/06/03 09:39:36;;;;;;;3.30;1.98;;;;;;;28.02;24.43;100286.97;5044234;28;20044;-64
2021/06/03 09:42:20;;;;;;;4.63;1.60;;;;;;;28.06;23.49;100279.91;5043178;28;20029;-65
2021/06/03 09:44:50;;;;;;;6.53;2.00;;;;;;;27.62;24.85;100278.28;5044051;28;20036;-64
2021/06/03 09:47:21;;;;;;;6.90;2.03;;;;;;;27.02;24.84;100297.56;5044129;28;20060;-64
2021/06/03 09:50:07;;;;;;;6.85;2.05;;;;;;;27.39;25.04;100299.56;5043539;28;20037;-64
2021/06/03 09:52:35;;;;;;;4.65;2.00;;;;;;;27.15;24.43;100286.31;5043741;28;20104;-64
2021/06/03 09:55:04;;;;;;;5.55;2.25;;;;;;;27.29;25.39;100289.41;5039569;28;20045;-64
2021/06/03 09:57:33;;;;;;;6.68;2.05;;;;;;;27.57;25.55;100293.72;5042907;28;20307;-64
2021/06/03 10:00:17;;;;;;;3.38;2.20;;;;;;;26.62;25.11;100285.16;5043803;28;20038;-64
2021/06/03 10:02:44;;;;;;;4.20;1.98;;;;;;;26.24;25.16;100287.91;5043450;28;20084;-64
2021/06/03 10:05:21;;;;;;;4.63;2.33;;;;;;;26.16;26.37;100283.75;5043947;28;20041;-64
2021/06/03 10:08:05;;;;;;;5.20;2.03;;;;;;;26.16;26.61;100281.03;5042933;28;20072;-64
2021/06/03 10:10:32;;;;;;;;;;;;;;;26.31;25.43;100278.50;5043928;28;20033;-64
2021/06/03 10:13:05;;;;;;;4.20;2.08;;;;;;;26.21;26.00;100274.84;5043437;28;20012;-64
2021/06/03 10:15:35;;;;;;;3.20;2.10;;;;;;;26.64;26.24;100274.84;5041675;28;20583;-64
2021/06/03 10:18:06;;;;;;;6.72;2.00;;;;;;;27.01;25.14;100268.75;5043319;28;20116;-64
2021/06/03 10:20:31;;;;;;;8.73;2.28;;;;;;;26.71;26.20;100272.75;5052238;28;20040;-64
2021/06/03 10:22:57;;;;;;;4.03;2.30;;;;;;;26.79;25.78;100268.75;5043997;28;20105;-64
2021/06/03 10:25:26;;;;;;;6.78;1.98;;;;;;;26.68;25.05;100262.41;5043045;28;20038;-64
2021/06/03 10:27:55;;;;;;;5.07;2.05;;;;;;;26.39;25.71;100272.66;5043393;28;20041;-64
2021/06/03 10:30:24;;;;;;;5.95;2.15;;;;;;;26.23;25.25;100264.56;5043081;28;20029;-64
2021/06/03 10:32:52;;;;;;;5.28;2.03;;;;;;;25.93;25.66;100278.50;5043684;28;20048;-64
2021/06/03 10:35:41;;;;;;;5.15;1.70;;;;;;;25.85;26.28;100276.22;5043255;28;20044;-64
2021/06/03 10:38:08;;;;;;;4.95;1.90;;;;;;;25.96;26.92;100265.25;5042593;28;20029;-64
2021/06/03 10:40:37;;;;;;;4.75;2.45;;;;;;;26.24;27.00;100264.31;5042948;28;20041;-64
2021/06/03 10:43:04;;;;;;;3.47;1.80;;;;;;;26.52;26.02;100271.47;5043194;28;20037;-64
2021/06/03 10:45:31;;;;;;;5.63;2.05;;;;;;;26.02;26.92;100264.28;5043030;28;20041;-64
2021/06/03 10:47:57;;;;;;;4.45;1.92;;;;;;;26.12;26.62;100265.50;5042880;28;20035;-64
2021/06/03 10:50:37;;;;;;;6.25;1.80;;;;;;;25.99;25.77;100272.09;5042967;28;20083;-64
2021/06/03 10:53:08;;;;;;;4.38;1.95;;;;;;;26.01;26.44;100273.50;5043040;28;20367;-64
2021/06/03 10:55:42;;;;;;;2.47;1.70;;;;;;;26.05;26.06;100269.22;5042783;28;20025;-64
2021/06/03 10:58:08;;;;;;;;;;;;;;;26.02;25.48;100274.31;5043523;28;20033;-64
2021/06/03 11:00:37;;;;;;;4.03;1.90;;;;;;;26.38;26.12;100272.91;5042942;28;19920;-64
2021/06/03 11:03:39;;;;;;;2.28;1.58;;;;;;;26.70;24.85;100275.72;5042984;28;20040;-64
2021/06/03 11:06:13;;;;;;;3.55;2.00;;;;;;;26.75;24.70;100269.53;5032922;28;20104;-65
2021/06/03 11:08:46;;;;;;;3.05;1.83;;;;;;;26.38;25.49;100272.91;5042661;28;20037;-64
2021/06/03 11:11:11;;;;;;;7.00;2.47;;;;;;;25.94;26.08;100278.25;5042665;28;20071;-64
2021/06/03 11:13:58;;;;;;;5.00;2.00;;;;;;;25.73;26.01;100282.56;5042359;28;20029;-64
2021/06/03 11:16:42;;;;;;;5.53;2.05;;;;;;;25.74;25.60;100280.69;5042436;28;20091;-64
2021/06/03 11:19:09;;;;;;;2.85;1.77;;;;;;;25.90;26.15;100276.28;5041819;28;20069;-64
2021/06/03 11:21:37;;;;;;;2.42;1.63;;;;;;;26.05;25.45;100271.09;5034036;28;20090;-64
2021/06/03 11:24:15;;;;;;;4.57;2.15;;;;;;;26.22;26.35;100277.31;5032866;28;20133;-64
2021/06/03 11:26:40;;;;;;;5.03;2.10;;;;;;;26.73;25.25;100276.03;5035666;28;20373;-64
2021/06/03 11:29:09;;;;;;;2.80;1.90;;;;;;;26.86;25.42;100272.09;5041570;28;20067;-64
2021/06/03 11:31:36;;;;;;;3.25;2.00;;;;;;;26.48;25.15;100270.31;5039377;28;20029;-64